WetterOnline ( https://www.wetteronline.de )

Wetter aktuell Bad Bramstedt

Aktuelles Wetter: Itzehoe (26m)

6-stündlich | Neueste Meldungen
Ortszeit Temperatur Wetter
Mi, 12.08. 2:00 19.3° C wolkenlos
Di, 11.08. 20:00 27.7° C wolkenlos
Di, 11.08. 14:00 31.3° C wolkenlos
Di, 11.08. 8:00 21.3° C wolkenlos
Di, 11.08. 2:00 20.3° C wolkenlos
Mo, 10.08. 20:00 28.3° C wolkenlos
Mo, 10.08. 14:00 31.6° C fast wolkenlos
Mo, 10.08. 8:00 21.2° C wolkenlos
Ortszeit Temperatur Wetter
Mi, 12.08. 3:00 18.7° C fast wolkenlos
Mi, 12.08. 2:50 18.7° C fast wolkenlos
Mi, 12.08. 2:40 19.0° C fast wolkenlos
Mi, 12.08. 2:30 19.0° C fast wolkenlos
Mi, 12.08. 2:20 19.0° C fast wolkenlos
Mi, 12.08. 2:10 19.1° C wolkenlos
Mi, 12.08. 2:00 19.3° C wolkenlos
Mi, 12.08. 1:30 20.1° C wolkenlos
Mi, 12.08. 1:00 20.5° C wolkenlos
Mi, 12.08. 0:30 21.3° C fast wolkenlos
Mi, 12.08. 0:00 21.6° C wolkenlos
Di, 11.08. 23:30 21.9° C wolkenlos
Ortszeit Relative Feuchte Sichtweite
Mi, 12.08. 2:00 72% 55 km
Di, 11.08. 20:00 48% 65 km
Di, 11.08. 14:00 39% 45 km
Di, 11.08. 8:00 84% 35 km
Di, 11.08. 2:00 84% 35 km
Mo, 10.08. 20:00 51% 45 km
Mo, 10.08. 14:00 38% 40 km
Mo, 10.08. 8:00 77% 40 km
Ortszeit Relative Feuchte Sichtweite
Mi, 12.08. 3:00 68% 65 km
Mi, 12.08. 2:50 68% -
Mi, 12.08. 2:40 68% -
Mi, 12.08. 2:30 71% 65 km
Mi, 12.08. 2:20 71% -
Mi, 12.08. 2:10 71% -
Mi, 12.08. 2:00 72% 55 km
Mi, 12.08. 1:30 70% 55 km
Mi, 12.08. 1:00 69% 60 km
Mi, 12.08. 0:30 67% 55 km
Mi, 12.08. 0:00 66% 60 km
Di, 11.08. 23:30 64% 55 km
Ortszeit Niederschlagsmenge Niederschlagsart
Mi, 12.08. 2:00 0.0 l/m2 in 6 Std. -
Di, 11.08. 20:00 0.0 l/m2 in 12 Std. -
Di, 11.08. 14:00 0.0 l/m2 in 6 Std. -
Di, 11.08. 8:00 0.0 l/m2 in 12 Std. -
Di, 11.08. 2:00 0.0 l/m2 in 6 Std. -
Mo, 10.08. 20:00 0.0 l/m2 in 12 Std. -
Mo, 10.08. 14:00 0.0 l/m2 in 6 Std. -
Mo, 10.08. 8:00 0.0 l/m2 in 12 Std. -
Ortszeit Niederschlagsmenge Niederschlagsart
Mi, 12.08. 3:00 0.0 l/m2 in 1 Std. -
Mi, 12.08. 2:50 keine Meldung -
Mi, 12.08. 2:40 keine Meldung -
Mi, 12.08. 2:30 0.0 l/m2 in 1 Std. -
Mi, 12.08. 2:20 keine Meldung -
Mi, 12.08. 2:10 keine Meldung -
Mi, 12.08. 2:00 0.0 l/m2 in 1 Std. -
Mi, 12.08. 1:30 0.0 l/m2 in 1 Std. -
Mi, 12.08. 1:00 0.0 l/m2 in 1 Std. -
Mi, 12.08. 0:30 0.0 l/m2 in 1 Std. -
Mi, 12.08. 0:00 0.0 l/m2 in 1 Std. -
Di, 11.08. 23:30 0.0 l/m2 in 1 Std. -
Ortszeit Stärke Spitze Richtung
km/h Bft. km/h Grad Sektor
Mi, 12.08. 2:00 11 2 32 90° O
Di, 11.08. 20:00 17 3 37 90° O
Di, 11.08. 14:00 14 3 36 130° SO
Di, 11.08. 8:00 13 3 19 100° O
Di, 11.08. 2:00 6 1 26 90° O
Mo, 10.08. 20:00 14 3 32 70° O
Mo, 10.08. 14:00 14 3 29 80° O
Mo, 10.08. 8:00 6 1 15 60° NO
Ortszeit Stärke Spitze Richtung
km/h Bft. km/h Grad Sektor
Mi, 12.08. 3:00 13 3 19 100° O
Mi, 12.08. 2:50 13 3 - 100° O
Mi, 12.08. 2:40 11 2 - 100° O
Mi, 12.08. 2:30 11 2 18 90° O
Mi, 12.08. 2:20 11 2 - 90° O
Mi, 12.08. 2:10 11 2 - 90° O
Mi, 12.08. 2:00 11 2 25 90° O
Mi, 12.08. 1:30 11 2 24 100° O
Mi, 12.08. 1:00 17 3 26 100° O
Mi, 12.08. 0:30 15 3 24 100° O
Mi, 12.08. 0:00 15 3 26 100° O
Di, 11.08. 23:30 14 3 25 100° O
Ortszeit Untergrenze Bedeckung Gattung
total tief tief mittel hoch
Mi, 12.08. 2:00 10500 m 0/8 0/8 - - -
Di, 11.08. 20:00 - 0/8 0/8 - - -
Di, 11.08. 14:00 - 0/8 0/8 - - -
Di, 11.08. 8:00 - 0/8 0/8 - - -
Di, 11.08. 2:00 - 0/8 0/8 - - -
Mo, 10.08. 20:00 - 0/8 0/8 - - -
Mo, 10.08. 14:00 9000 m 1/8 0/8 - - -
Mo, 10.08. 8:00 - 0/8 0/8 - - -
Ortszeit Bedeckungsgrad in Achtel und Wolkenuntergrenze
Mi, 12.08. 3:00 1(12000m)
Mi, 12.08. 2:50 1(12000m)
Mi, 12.08. 2:40 2(12000m)
Mi, 12.08. 2:30 2(12000m)
Mi, 12.08. 2:20 2(12000m)
Mi, 12.08. 2:10 keine Wolken
Mi, 12.08. 2:00 1(10500m)
Mi, 12.08. 1:30 keine Wolken
Mi, 12.08. 1:00 keine Wolken
Mi, 12.08. 0:30 2(12000m)
Mi, 12.08. 0:00 keine Wolken
Di, 11.08. 23:30 keine Wolken
Ortszeit Luftdruck NN (hPa) Tendenz (hPa in 3 Std.)
Mi, 12.08. 2:00 1020 + 0,4
Di, 11.08. 20:00 1019 - 0,2
Di, 11.08. 14:00 1020 - 0,4
Di, 11.08. 8:00 1020 0,0
Di, 11.08. 2:00 1020 + 1,4
Mo, 10.08. 20:00 1018 + 0,7
Mo, 10.08. 14:00 1018 - 0,3
Mo, 10.08. 8:00 1019 + 0,1
Ortszeit Luftdruck NN (hPa) Tendenz (hPa in 3 Std.)
Mi, 12.08. 3:00 1020 0,0
Mi, 12.08. 2:50 1020 keine Meldung
Mi, 12.08. 2:40 1020 keine Meldung
Mi, 12.08. 2:30 1020 + 0,1
Mi, 12.08. 2:20 1020 keine Meldung
Mi, 12.08. 2:10 1020 keine Meldung
Mi, 12.08. 2:00 1020 + 0,4
Mi, 12.08. 1:30 1021 + 0,8
Mi, 12.08. 1:00 1020 + 0,8
Mi, 12.08. 0:30 1020 + 0,6
Mi, 12.08. 0:00 1020 + 0,9
Di, 11.08. 23:30 1020 + 1,1
Ortszeit Schneehöhe (cm)
Mi, 12.08. 2:00 -
Di, 11.08. 20:00 -
Di, 11.08. 14:00 -
Di, 11.08. 8:00 -
Di, 11.08. 2:00 -
Mo, 10.08. 20:00 -
Mo, 10.08. 14:00 -
Mo, 10.08. 8:00 -
Ortszeit Schneehöhe (cm)
Mi, 12.08. 3:00 -
Mi, 12.08. 2:50 -
Mi, 12.08. 2:40 -
Mi, 12.08. 2:30 -
Mi, 12.08. 2:20 -
Mi, 12.08. 2:10 -
Mi, 12.08. 2:00 -
Mi, 12.08. 1:30 -
Mi, 12.08. 1:00 -
Mi, 12.08. 0:30 -
Mi, 12.08. 0:00 -
Di, 11.08. 23:30 -
Link zu dieser Seite / Seite empfehlen

Das Wetter in ...